Bookmark and Share
Track history (hours):
 

Amarant

Last reported at 2014-Apr-20 18:33 UTC. Time now 2014-Apr-20 18:56 UTC.
Position N 51°15' E 004°22'.

Length 120 m; draft 7.5 m.

Type: Tanker. MMSI: 255623000.

NotesDate/timePositionNaut miles runAvg speedWind from/ knotsBaromVisibWave heightAir tempDewpointWater temp
2014-Apr-20 18:33N 51°15' E 004°22'0 0.0
2014-Apr-20 17:33N 51°15' E 004°22'0 0.0
2014-Apr-20 16:33N 51°15' E 004°22'0 0.0
2014-Apr-20 15:33N 51°15' E 004°22'2 2.2
2014-Apr-20 14:34N 51°17' E 004°20'1 1.5
2014-Apr-20 13:33N 51°18' E 004°18'7 7.4
2014-Apr-20 12:33N 51°23' E 004°10'1 0.8
2014-Apr-20 11:33N 51°22' E 004°09'4 4.1
2014-Apr-20 10:33N 51°23' E 004°02'7 6.5
2014-Apr-20 09:33N 51°21' E 003°53'9 9.4
2014-Apr-20 08:33N 51°25' E 003°39'10 9.8
2014-Apr-20 07:33N 51°31' E 003°26'1111.1
2014-Apr-20 06:33N 51°41' E 003°18'6 5.9
2014-Apr-20 05:31N 51°47' E 003°19'0 0.1
2014-Apr-20 04:28N 51°47' E 003°19'0 0.0
2014-Apr-20 03:31N 51°47' E 003°19'0 0.1
2014-Apr-20 02:19N 51°47' E 003°19'0 0.0
2014-Apr-20 01:28N 51°47' E 003°19'0 0.0
2014-Apr-20 00:31N 51°47' E 003°19'0 0.0
2014-Apr-19 23:33N 51°47' E 003°19'0 0.0
2014-Apr-19 22:30N 51°47' E 003°19'0 0.0
2014-Apr-19 21:33N 51°47' E 003°19'0 0.0
2014-Apr-19 20:33N 51°47' E 003°19'0 0.0
2014-Apr-19 19:33N 51°47' E 003°19'0 0.1
2014-Apr-19 18:30N 51°47' E 003°19'0 0.0
2014-Apr-19 17:33N 51°47' E 003°19'0 0.0
2014-Apr-19 16:33N 51°47' E 003°19'0 0.0
2014-Apr-19 15:30N 51°47' E 003°19'0 0.1
2014-Apr-19 11:30N 51°47' E 003°19'76 7.4
2014-Apr-19 01:11N 52°58' E 004°01'913.8
2014-Apr-19 00:32N 53°04' E 004°12'30111.9
2014-Apr-17 23:18N 57°19' E 008°51'911.4
2014-Apr-17 22:33N 57°23' E 009°05'1111.3
2014-Apr-17 21:33N 57°30' E 009°22'2611.0
2014-Apr-17 19:12N 57°42' E 010°04'711.0
2014-Apr-17 18:33N 57°45' E 010°16'1010.5
2014-Apr-17 17:33N 57°49' E 010°35'1010.0
2014-Apr-17 16:33N 57°47' E 010°53'1211.8
2014-Apr-17 15:33N 57°38' E 011°08'1312.6
2014-Apr-17 14:33N 57°29' E 011°25'1413.6
2014-Apr-17 13:34N 57°17' E 011°33'1413.7
2014-Apr-17 12:33N 57°04' E 011°42'1313.4
2014-Apr-17 11:33N 56°51' E 011°50'1313.1
2014-Apr-17 10:33N 56°39' E 011°57'1312.7
2014-Apr-17 09:33N 56°27' E 012°05'1313.0
2014-Apr-17 08:33N 56°17' E 012°20'1413.9
2014-Apr-17 07:33N 56°06' E 012°35'1413.6
2014-Apr-17 06:33N 55°53' E 012°44'1313.0
2014-Apr-17 05:33N 55°40' E 012°41'1110.6
2014-Apr-17 04:33N 55°30' E 012°42'1211.6
2014-Apr-17 03:33N 55°18' E 012°43'1312.9
2014-Apr-17 02:34N 55°16' E 013°05'1313.3
2014-Apr-17 01:33N 55°15' E 013°28'1413.6
2014-Apr-17 00:33N 55°14' E 013°52'1413.8
2014-Apr-16 23:33N 55°14' E 014°16'1313.5
2014-Apr-16 22:33N 55°24' E 014°31'1313.2
2014-Apr-16 21:33N 55°32' E 014°50'1313.3
2014-Apr-16 20:33N 55°39' E 015°11'1313.1
2014-Apr-16 19:33N 55°45' E 015°31'1313.1
2014-Apr-16 18:33N 55°52' E 015°51'1313.0
2014-Apr-16 17:33N 55°58' E 016°11'1313.0
2014-Apr-16 16:33N 56°05' E 016°31'  
2014-Apr-12 11:33N 56°04' E 016°11'1413.8
2014-Apr-12 10:33N 55°53' E 015°58'1613.5
2014-Apr-12 09:23N 55°42' E 015°37'1214.0
2014-Apr-12 08:33N 55°36' E 015°19'1414.0
2014-Apr-12 07:33N 55°30' E 014°57'1414.1
2014-Apr-12 06:33N 55°22' E 014°36'1413.8
2014-Apr-12 05:33N 55°12' E 014°21'1312.7
2014-Apr-12 04:33N 55°10' E 013°58'1313.5
2014-Apr-12 03:33N 55°10' E 013°35'1413.4
2014-Apr-12 02:30N 55°11' E 013°10'1313.6
2014-Apr-12 01:33N 55°15' E 012°49'1010.2
2014-Apr-12 00:33N 55°24' E 012°40'1211.5
2014-Apr-11 23:33N 55°35' E 012°42'1212.4
2014-Apr-11 22:33N 55°48' E 012°42'1313.4
2014-Apr-11 21:33N 56°01' E 012°38'1313.2
2014-Apr-11 20:33N 56°11' E 012°23'1413.6
2014-Apr-11 19:33N 56°24' E 012°16'1413.9
2014-Apr-11 18:33N 56°38' E 012°09'1413.8
2014-Apr-11 17:32N 56°51' E 012°03'1414.1
2014-Apr-11 16:33N 57°05' E 011°56'1414.3
2014-Apr-11 15:33N 57°18' E 011°49'1413.7
2014-Apr-11 14:33N 57°31' E 011°39'1111.2
2014-Apr-11 13:33N 57°41' E 011°48'2 2.2
2014-Apr-11 12:31N 57°41' E 011°52'0 0.0
2014-Apr-10 23:13N 57°41' E 011°52'0 0.0
2014-Apr-10 22:31N 57°41' E 011°52'0 0.2
2014-Apr-10 21:31N 57°41' E 011°53'0 0.0
2014-Apr-10 20:31N 57°41' E 011°53'0 0.0
2014-Apr-10 19:31N 57°41' E 011°53'  

Dump ship's entire track history

sailing weather and tide predictions

Amarant — CQSF — position and weather